LCPH/PFO METAR and TAF weather

Enter ICAO airport designator
Station Type Date Time Source
LCPH METAR 2019/02/16 04:00 UTC NOAA

LCPH 160400Z 08009KT 9999 FEW020TCU BKN035 11/09 Q1013


Station Type Date Time Source
LCPH Decoded METAR 2019/02/16 04:00 UTC NOAA

Paphos Airport, Cyprus (LCPH) 34-43N 032-29E 8M
Feb 15, 2019 - 11:00 PM EST / 2019.02.16 0400 UTC
Wind: from the E (080 degrees) at 10 MPH (9 KT):0
Visibility: greater than 7 mile(s):0
Sky conditions: mostly cloudy
Weather: Towering cumulus clouds observed
Temperature: 51 F (11 C)
Dew Point: 48 F (9 C)
Relative Humidity: 87%
Pressure (altimeter): 29.91 in. Hg (1013 hPa)
ob: LCPH 160400Z 08009KT 9999 FEW020TCU BKN035 11/09 Q1013
cycle: 4

Station Type Date Time Source
LCPH TAF 2019/02/15 18:33 UTC NOAA

TAF LCPH 151730Z 1518/1618 20010KT 9999 SCT030
BECMG 1519/1521 03008KT PROB40
TEMPO 1523/1612 5000 SHRA BKN008 PROB30
TEMPO 1606/1612 VRB20G30KT 2000 TSRA SCT020CB


Example: see airport list